Shabla, Bulgaria

4:04 PM EEST on July 23, 2017 (GMT +0300)
LifeHarbour | | Change Station

Elev 1 ft 43.80 °N, 28.54 °E | Updated 4 minutes ago

Rain
Rain
85.0 °F
Feels Like 89 °F
N
10.0
Wind Variable Wind from SSE
Gusts 13.0 mph

Today
High -- | Low -- °F
--% Chance of Precip.
Yesterday
High -- | Low -- °F
Precip. -- in
Pressure 29.89 in
Visibility 6.2 miles
Clouds Few 4000 ft
Few 4800 ft
Heat Index 89 °F
Dew Point 69 °F
Humidity 58%
Rainfall 0.00 in
Snow Depth Not available.
5:45 AM 8:38 PM
New Moon, 0% visible
METAR LBWN 231300Z 10014KT 9999 FEW040TCU FEW048 30/19 Q1012 NOSIG
Pressure 29.89 in
Visibility 6.2 miles
Clouds Few 4000 ft
Few 4800 ft
Heat Index 89 °F
Dew Point 69 °F
Humidity 58%
Rainfall 0.00 in
Snow Depth Not available.
5:45 AM 8:38 PM
New Moon, 0% visible
METAR LBWN 231300Z 10014KT 9999 FEW040TCU FEW048 30/19 Q1012 NOSIG

Get Severe Weather Alerts

Thanks for signing up!

Be on the lookout for a verification email in your inbox.

You'll start receiving the daily forecast at 6 AM.

×

10-Day Weather Forecast

×

Almanac

Astronomy

Jul. 23, 2017 Rise Set
Actual Time
Civil Twilight
Nautical Twilight
Astronomical Twilight
Moon
Length of Visible Light
Length of Day
Tomorrow will be .
, % of the Moon is Illuminated

Today's Extremes

Country Highs Country Lows

Community

WunderPhotos

Category 6

Welcome to Category 6. This is the collective home for Weather Underground's featured writeups by Dr. Jeff Masters (right), Bob Henson (left), Chris Burt, and other regular contributors.

Nearby

Air Quality

  Air Quality AQ Index Pollutant
Not available.

Snow Depth

Station Depth Elevation

Earthquake Activity

City Distance Mag. Time & Date
Minimum magnitude displayed is 2.5.

Coastal Water Temperatures

Place Temperature

Stations

Nearby Weather Stations

Station Location Temp. Windchill Dew Point Humidity Wind Precip. Elev Updated Type